Time;durP1;ratioP1;P1;durP2;ratioP2;P2;SDS_P1;SDS_P2;PMS_P1;PMS_P2;Temp;Humidity;BMP_temperature;BMP_pressure;BME280_temperature;BME280_humidity;BME280_pressure;Samples;Min_cycle;Max_cycle;Signal;HPM_P1;HPM_P2
2022/03/20 00:01:17;;;;;;;23.38;13.32;;;3.40;68.20;;;;;;5055501;28;20066;-79
2022/03/20 00:03:43;;;;;;;24.27;14.18;;;3.40;68.30;;;;;;5058588;28;20013;-81
2022/03/20 00:06:09;;;;;;;24.80;14.05;;;3.40;69.00;;;;;;5064222;28;20063;-77
2022/03/20 00:08:35;;;;;;;24.05;14.18;;;3.40;68.60;;;;;;5058486;28;20032;-80
2022/03/20 00:11:02;;;;;;;23.17;13.60;;;3.40;68.70;;;;;;5059254;28;20035;-79
2022/03/20 00:13:30;;;;;;;25.52;14.25;;;3.40;68.80;;;;;;5058678;28;20044;-78
2022/03/20 00:15:57;;;;;;;25.67;14.63;;;3.40;68.80;;;;;;5049156;28;20083;-79
2022/03/20 00:18:25;;;;;;;23.00;13.68;;;3.40;68.90;;;;;;5057362;28;20052;-78
2022/03/20 00:20:53;;;;;;;26.50;14.63;;;3.40;68.90;;;;;;5064426;28;20510;-78
2022/03/20 00:23:19;;;;;;;22.15;13.73;;;3.40;68.90;;;;;;5059188;28;20520;-79
2022/03/20 00:25:46;;;;;;;24.45;14.38;;;3.40;68.90;;;;;;5055229;28;20025;-79
2022/03/20 00:28:15;;;;;;;24.33;12.80;;;3.30;69.00;;;;;;5050067;28;20033;-80
2022/03/20 00:30:42;;;;;;;23.58;13.40;;;3.30;69.20;;;;;;5055869;28;20037;-80
2022/03/20 00:33:08;;;;;;;19.40;11.98;;;3.40;69.40;;;;;;5059293;28;20108;-78
2022/03/20 00:35:34;;;;;;;23.02;12.02;;;3.30;69.40;;;;;;5042724;28;20053;-79
2022/03/20 00:38:00;;;;;;;25.40;13.60;;;3.30;69.30;;;;;;5038027;28;20501;-80
2022/03/20 00:40:26;;;;;;;25.70;14.45;;;3.40;69.50;;;;;;5036699;28;20029;-80
2022/03/20 00:42:53;;;;;;;26.17;14.02;;;3.30;69.30;;;;;;5036574;28;20033;-79
2022/03/20 00:45:19;;;;;;;22.83;13.45;;;3.30;69.40;;;;;;5047766;28;20489;-79
2022/03/20 00:47:44;;;;;;;20.70;12.68;;;3.30;69.50;;;;;;5042950;28;20029;-79
2022/03/20 00:50:10;;;;;;;26.55;14.80;;;3.30;69.60;;;;;;5055389;28;20145;-79
2022/03/20 00:52:37;;;;;;;24.90;13.90;;;3.30;69.60;;;;;;5053384;28;20441;-79
2022/03/20 00:55:03;;;;;;;26.70;14.93;;;3.30;69.60;;;;;;5035306;28;20064;-79
2022/03/20 00:57:29;;;;;;;26.55;14.80;;;3.20;69.70;;;;;;5035745;28;20382;-80
2022/03/20 00:59:55;;;;;;;23.10;13.05;;;3.20;69.80;;;;;;5036068;28;20474;-80
2022/03/20 01:02:21;;;;;;;25.88;14.52;;;3.20;69.90;;;;;;5040243;28;20078;-79
2022/03/20 01:04:47;;;;;;;23.40;14.80;;;3.20;70.00;;;;;;5043660;28;20071;-79
2022/03/20 01:07:13;;;;;;;30.10;15.38;;;3.20;69.90;;;;;;5035992;28;20060;-78
2022/03/20 01:09:39;;;;;;;28.15;15.45;;;3.10;70.00;;;;;;5034984;28;20025;-78
2022/03/20 01:12:08;;;;;;;28.00;15.57;;;3.10;70.10;;;;;;5036854;28;20366;-79
2022/03/20 01:14:34;;;;;;;28.35;16.05;;;3.10;70.20;;;;;;5050137;28;20039;-77
2022/03/20 01:17:00;;;;;;;27.10;14.70;;;3.10;70.30;;;;;;5058389;28;20029;-79
2022/03/20 01:19:26;;;;;;;29.92;15.80;;;3.00;70.40;;;;;;5055104;28;20057;-79
2022/03/20 01:21:53;;;;;;;26.15;14.38;;;3.10;70.60;;;;;;5056732;28;20036;-79
2022/03/20 01:24:21;;;;;;;24.92;13.98;;;3.00;70.70;;;;;;5057000;28;20048;-79
2022/03/20 01:26:47;;;;;;;25.58;13.93;;;3.00;70.80;;;;;;5056250;28;20028;-80
2022/03/20 01:29:12;;;;;;;24.95;14.50;;;3.00;70.80;;;;;;5057245;28;20477;-78
2022/03/20 01:31:38;;;;;;;25.42;14.38;;;3.00;70.90;;;;;;5047813;28;20108;-79
2022/03/20 01:34:05;;;;;;;26.98;15.07;;;2.90;71.10;;;;;;5062053;28;20103;-80
2022/03/20 01:36:31;;;;;;;27.95;14.85;;;2.90;71.30;;;;;;5065322;28;20033;-79
2022/03/20 01:38:57;;;;;;;28.25;15.00;;;2.90;71.40;;;;;;5073966;28;20044;-79
2022/03/20 01:41:23;;;;;;;23.02;14.02;;;2.90;71.40;;;;;;5072663;28;20029;-80
2022/03/20 01:44:00;;;;;;;25.00;14.27;;;2.90;71.60;;;;;;5074652;28;20029;-80
2022/03/20 01:46:26;;;;;;;25.80;14.25;;;2.80;71.60;;;;;;5046711;28;20056;-78
2022/03/20 01:48:53;;;;;;;24.13;12.88;;;2.80;71.70;;;;;;5037938;28;20093;-80
2022/03/20 01:52:10;;;;;;;19.85;12.50;;;2.80;72.00;;;;;;5040043;28;20029;-80
2022/03/20 01:54:05;;;;;;;23.52;13.18;;;2.80;72.10;;;;;;5041454;28;20389;-78
2022/03/20 01:56:33;;;;;;;24.45;13.45;;;2.80;72.20;;;;;;5037946;28;20052;-80
2022/03/20 01:59:01;;;;;;;24.98;13.50;;;2.80;72.20;;;;;;5034430;28;20057;-81
2022/03/20 02:01:27;;;;;;;24.85;14.18;;;2.80;72.20;;;;;;5036469;28;20022;-80
2022/03/20 02:03:53;;;;;;;22.52;12.88;;;2.70;72.40;;;;;;5049640;28;20024;-79
2022/03/20 02:06:19;;;;;;;22.52;12.63;;;2.70;72.60;;;;;;5056459;28;20357;-80
2022/03/20 02:08:45;;;;;;;25.20;13.75;;;2.70;72.70;;;;;;5040362;28;20108;-80
2022/03/20 02:11:11;;;;;;;21.70;12.82;;;2.70;72.60;;;;;;5036150;28;20029;-80
2022/03/20 02:13:36;;;;;;;22.63;12.60;;;2.70;72.90;;;;;;5042880;28;20069;-79
2022/03/20 02:16:02;;;;;;;20.90;12.10;;;2.70;72.80;;;;;;5053033;28;20094;-78
2022/03/20 02:18:29;;;;;;;18.95;11.35;;;2.70;73.00;;;;;;5047882;28;20242;-80
2022/03/20 02:20:57;;;;;;;20.00;11.95;;;2.70;73.10;;;;;;5039334;28;20081;-80
2022/03/20 02:23:22;;;;;;;20.15;11.90;;;2.60;73.10;;;;;;5049485;28;20085;-80
2022/03/20 02:25:49;;;;;;;17.75;11.45;;;2.60;73.30;;;;;;5054960;28;20013;-80
2022/03/20 02:28:16;;;;;;;19.10;11.60;;;2.60;73.60;;;;;;5056417;28;20017;-81
2022/03/20 02:30:46;;;;;;;23.50;13.25;;;2.60;73.60;;;;;;5069326;28;20072;-81
2022/03/20 02:33:22;;;;;;;21.98;12.25;;;2.60;73.60;;;;;;5061277;28;20036;-80
2022/03/20 02:35:58;;;;;;;22.27;13.35;;;2.50;73.40;;;;;;5055162;28;20079;-80
2022/03/20 02:38:24;;;;;;;21.52;12.20;;;2.40;73.40;;;;;;5054192;28;20041;-79
2022/03/20 02:40:54;;;;;;;21.77;13.38;;;2.40;73.60;;;;;;5061204;28;20047;-79
2022/03/20 02:43:20;;;;;;;19.40;12.20;;;2.40;73.80;;;;;;5051774;28;20025;-79
2022/03/20 02:45:47;;;;;;;19.73;12.32;;;2.40;73.90;;;;;;5061514;28;20029;-78
2022/03/20 02:48:13;;;;;;;19.60;11.85;;;2.50;73.90;;;;;;5054160;28;20029;-78
2022/03/20 02:50:38;;;;;;;22.35;13.70;;;2.40;73.80;;;;;;5048125;28;20053;-78
2022/03/20 02:53:13;;;;;;;22.85;13.13;;;2.40;73.90;;;;;;5048778;28;20033;-80
2022/03/20 02:55:45;;;;;;;22.45;13.00;;;2.40;74.00;;;;;;5054022;28;20021;-79
2022/03/20 02:58:14;;;;;;;27.30;15.07;;;2.40;74.20;;;;;;5054747;28;20021;-80
2022/03/20 03:00:41;;;;;;;28.08;14.60;;;2.40;74.30;;;;;;5041215;28;20040;-78
2022/03/20 03:03:11;;;;;;;24.48;14.20;;;2.40;74.30;;;;;;5040142;28;20086;-79
2022/03/20 03:05:38;;;;;;;22.92;13.15;;;2.40;74.30;;;;;;5036633;28;20036;-79
2022/03/20 03:10:57;;;;;;;22.98;13.73;;;2.30;74.50;;;;;;5037412;28;20048;-78
2022/03/20 03:13:35;;;;;;;28.05;15.10;;;2.30;74.70;;;;;;5040664;28;20082;-80
2022/03/20 03:16:13;;;;;;;24.52;14.70;;;2.30;74.80;;;;;;5045827;28;20083;-79
2022/03/20 03:18:40;;;;;;;23.52;13.40;;;2.20;74.80;;;;;;5040355;28;20030;-80
2022/03/20 03:21:10;;;;;;;22.02;13.25;;;2.20;75.00;;;;;;5036896;28;20017;-80
2022/03/20 03:23:38;;;;;;;21.13;12.48;;;2.20;75.30;;;;;;5056863;28;20025;-78
2022/03/20 03:26:05;;;;;;;22.33;12.93;;;2.10;75.40;;;;;;5055529;28;20029;-80
2022/03/20 03:28:37;;;;;;;20.50;11.40;;;2.20;75.70;;;;;;5047750;28;20422;-80
2022/03/20 03:31:10;;;;;;;25.10;13.48;;;2.20;75.70;;;;;;5033685;28;20124;-79
2022/03/20 03:36:25;;;;;;;22.60;12.00;;;2.10;75.70;;;;;;5053570;28;20040;-79
2022/03/20 03:38:51;;;;;;;20.73;11.95;;;2.10;76.10;;;;;;5051157;28;20033;-77
2022/03/20 03:41:17;;;;;;;21.38;12.43;;;2.10;76.20;;;;;;5054936;28;20371;-78
2022/03/20 03:43:43;;;;;;;24.00;13.02;;;2.10;76.10;;;;;;5051493;28;20055;-79
2022/03/20 03:46:09;;;;;;;23.70;13.50;;;2.20;76.10;;;;;;5049517;28;20055;-78
2022/03/20 03:48:35;;;;;;;26.30;14.68;;;2.10;76.00;;;;;;5053251;28;20029;-78
2022/03/20 03:51:01;;;;;;;25.15;14.13;;;2.10;76.00;;;;;;5039662;28;20441;-79
2022/03/20 03:53:26;;;;;;;28.15;14.82;;;2.20;76.10;;;;;;5040776;28;20028;-79
2022/03/20 03:55:52;;;;;;;24.50;13.95;;;2.10;76.30;;;;;;5056746;28;20105;-80
2022/03/20 03:58:18;;;;;;;25.27;13.75;;;2.10;76.20;;;;;;5057653;28;20033;-77
2022/03/20 04:00:44;;;;;;;23.02;13.25;;;2.10;76.20;;;;;;5034108;28;20032;-77
2022/03/20 04:03:10;;;;;;;25.08;14.40;;;2.10;76.20;;;;;;5038378;28;20030;-79
2022/03/20 04:05:36;;;;;;;23.65;13.95;;;2.10;76.30;;;;;;5039246;28;20382;-79
2022/03/20 04:08:01;;;;;;;23.92;13.68;;;2.00;76.30;;;;;;5038878;28;20550;-79
2022/03/20 04:10:27;;;;;;;25.48;14.13;;;2.10;76.40;;;;;;5036918;28;20075;-79
2022/03/20 04:12:54;;;;;;;26.15;14.55;;;2.00;76.40;;;;;;5036888;28;20053;-79
2022/03/20 04:15:24;;;;;;;23.85;14.43;;;2.00;76.50;;;;;;5047181;28;20033;-79
2022/03/20 04:17:53;;;;;;;27.42;14.38;;;2.00;76.60;;;;;;5049421;28;20032;-79
2022/03/20 04:20:19;;;;;;;26.58;14.23;;;2.00;76.50;;;;;;5052619;28;20052;-80
2022/03/20 04:23:45;;;;;;;24.52;14.45;;;2.00;76.60;;;;;;5045245;28;20133;-80
2022/03/20 04:25:32;;;;;;;27.55;14.25;;;2.00;76.70;;;;;;5054699;28;20017;-79
2022/03/20 04:27:59;;;;;;;28.35;15.15;;;2.00;76.80;;;;;;5049492;28;20030;-79
2022/03/20 04:30:28;;;;;;;27.30;15.15;;;2.00;76.80;;;;;;5038832;28;20029;-79
2022/03/20 04:32:55;;;;;;;25.77;14.98;;;2.00;76.80;;;;;;5036170;28;20025;-79
2022/03/20 04:35:23;;;;;;;24.33;13.77;;;1.90;76.80;;;;;;5045739;28;20040;-79
2022/03/20 04:37:53;;;;;;;22.85;13.60;;;2.00;77.10;;;;;;5042551;28;20125;-79
2022/03/20 04:40:20;;;;;;;24.67;13.45;;;2.00;77.20;;;;;;5060011;28;20021;-79
2022/03/20 04:42:45;;;;;;;22.92;13.88;;;2.00;77.30;;;;;;5052053;28;20036;-79
2022/03/20 04:45:12;;;;;;;21.30;12.77;;;2.00;77.10;;;;;;5049161;28;20029;-79
2022/03/20 04:58:40;;;;;;;27.58;13.65;;;1.90;78.00;;;;;;5050435;28;20059;-80
2022/03/20 05:01:08;;;;;;;26.52;15.13;;;1.90;77.60;;;;;;5056619;28;20025;-79
2022/03/20 05:03:34;;;;;;;28.08;16.38;;;1.90;77.50;;;;;;5059146;28;20057;-79
2022/03/20 05:06:02;;;;;;;27.40;15.13;;;1.90;77.30;;;;;;5055126;28;20025;-79
2022/03/20 05:08:28;;;;;;;24.38;13.93;;;1.80;77.30;;;;;;5040876;28;20570;-79
2022/03/20 05:13:38;;;;;;;23.23;13.07;;;1.80;77.70;;;;;;5064942;28;20036;-79
2022/03/20 05:16:04;;;;;;;22.75;13.00;;;1.80;77.90;;;;;;5082318;22;20040;-79
2022/03/20 05:18:32;;;;;;;24.15;13.57;;;1.80;77.90;;;;;;5065278;28;20041;-79
2022/03/20 05:20:58;;;;;;;22.00;13.00;;;1.80;77.90;;;;;;5067845;28;20067;-79
2022/03/20 05:23:24;;;;;;;21.08;13.25;;;1.80;78.20;;;;;;5067919;28;20041;-80
2022/03/20 05:25:49;;;;;;;20.88;12.95;;;1.70;78.20;;;;;;5060175;28;20086;-80
2022/03/20 05:28:16;;;;;;;23.88;13.75;;;1.70;78.40;;;;;;5051525;28;20044;-79
2022/03/20 05:30:43;;;;;;;26.05;14.38;;;1.70;78.50;;;;;;5064100;28;20025;-79
2022/03/20 05:33:12;;;;;;;23.33;13.82;;;1.70;78.60;;;;;;5062432;28;20092;-80
2022/03/20 05:35:39;;;;;;;25.52;13.82;;;1.80;78.60;;;;;;5043413;28;20402;-79
2022/03/20 05:38:10;;;;;;;24.30;13.93;;;1.80;78.60;;;;;;5051622;28;20509;-81
2022/03/20 05:40:41;;;;;;;21.83;12.48;;;1.80;78.60;;;;;;5040055;28;20025;-79
2022/03/20 05:43:10;;;;;;;22.70;12.57;;;1.80;78.70;;;;;;5041009;28;20065;-79
2022/03/20 05:45:39;;;;;;;21.88;12.80;;;1.90;78.80;;;;;;5055704;28;20032;-79
2022/03/20 05:48:05;;;;;;;23.65;13.52;;;1.90;78.80;;;;;;5053158;28;20026;-80
2022/03/20 05:50:31;;;;;;;26.88;13.95;;;1.90;78.70;;;;;;5044380;28;20017;-80
2022/03/20 05:52:57;;;;;;;25.88;14.90;;;1.90;78.60;;;;;;5041194;28;20425;-80
2022/03/20 05:58:01;;;;;;;24.98;15.63;;;2.00;78.60;;;;;;5041569;28;20047;-80
2022/03/20 05:58:13;;;;;;;26.23;15.48;;;2.00;78.50;;;;;;5048645;28;20079;-80
2022/03/20 06:00:42;;;;;;;30.88;16.55;;;2.00;78.30;;;;;;5060238;28;20017;-79
2022/03/20 06:03:11;;;;;;;29.02;15.48;;;2.00;78.30;;;;;;5060526;28;20025;-80
2022/03/20 06:05:38;;;;;;;29.00;15.40;;;2.00;78.30;;;;;;5059227;28;20147;-80
2022/03/20 06:08:05;;;;;;;24.08;14.32;;;2.00;78.00;;;;;;5058885;28;20381;-79
2022/03/20 06:10:32;;;;;;;26.80;15.52;;;2.10;78.00;;;;;;5060982;28;20021;-80
2022/03/20 06:12:58;;;;;;;24.15;13.10;;;2.10;77.90;;;;;;5054886;28;20030;-79
2022/03/20 06:15:24;;;;;;;23.02;13.98;;;2.20;78.00;;;;;;5056804;28;20043;-80
2022/03/20 06:17:50;;;;;;;25.75;14.93;;;2.30;77.60;;;;;;5058779;28;20033;-79
2022/03/20 06:20:17;;;;;;;23.40;12.82;;;2.40;77.50;;;;;;5040968;28;20026;-79
2022/03/20 06:22:44;;;;;;;24.20;13.93;;;2.50;77.20;;;;;;5039837;28;20033;-80
2022/03/20 06:25:15;;;;;;;26.40;14.40;;;2.60;77.00;;;;;;5037367;28;20577;-79
2022/03/20 06:27:52;;;;;;;24.70;13.45;;;2.70;76.70;;;;;;5042384;28;20025;-80
2022/03/20 06:30:19;;;;;;;23.00;14.05;;;2.70;76.30;;;;;;5050670;28;20021;-78
2022/03/20 06:32:46;;;;;;;26.92;16.27;;;2.80;75.80;;;;;;5048303;28;20014;-79
2022/03/20 06:35:14;;;;;;;25.35;15.27;;;2.90;75.40;;;;;;5056823;28;20017;-79
2022/03/20 06:37:44;;;;;;;28.10;15.70;;;2.90;75.20;;;;;;5054265;28;20044;-79
2022/03/20 06:40:11;;;;;;;25.35;15.57;;;3.00;75.00;;;;;;5064819;28;20048;-79
2022/03/20 06:42:38;;;;;;;30.23;16.10;;;3.00;74.70;;;;;;5068787;28;20346;-79
2022/03/20 06:45:08;;;;;;;30.42;17.02;;;3.00;73.80;;;;;;5058001;28;20029;-79
2022/03/20 06:47:35;;;;;;;25.95;15.65;;;3.10;74.00;;;;;;5046999;28;20104;-80
2022/03/20 06:50:02;;;;;;;28.92;16.52;;;3.10;73.70;;;;;;5046660;28;20454;-78
2022/03/20 06:52:28;;;;;;;26.42;15.02;;;3.20;73.60;;;;;;5062332;28;20032;-78
2022/03/20 06:54:59;;;;;;;26.13;15.00;;;3.30;73.40;;;;;;5066586;28;20033;-78
2022/03/20 06:57:26;;;;;;;25.77;14.68;;;3.40;73.10;;;;;;5060713;28;20036;-81
2022/03/20 06:59:53;;;;;;;24.63;14.73;;;3.50;72.90;;;;;;5059748;28;20140;-79
2022/03/20 07:02:19;;;;;;;27.83;14.75;;;3.60;72.50;;;;;;5061500;28;20087;-79
2022/03/20 07:04:47;;;;;;;31.23;17.90;;;3.70;72.10;;;;;;5060806;28;20028;-79
2022/03/20 07:07:17;;;;;;;29.38;16.67;;;3.70;71.40;;;;;;5058986;28;20055;-78
2022/03/20 07:09:43;;;;;;;28.85;17.13;;;3.70;71.10;;;;;;5056716;28;20021;-80
2022/03/20 07:12:10;;;;;;;29.48;16.73;;;3.80;70.90;;;;;;5041061;28;20049;-80
2022/03/20 07:14:38;;;;;;;31.00;17.00;;;3.80;70.60;;;;;;5048407;28;20018;-79
2022/03/20 07:17:09;;;;;;;29.27;17.67;;;3.90;70.40;;;;;;5056241;28;20027;-80
2022/03/20 07:19:37;;;;;;;27.20;16.75;;;3.90;69.90;;;;;;5043190;28;20036;-79
2022/03/20 07:22:03;;;;;;;31.42;16.10;;;4.00;70.10;;;;;;5057678;28;20044;-79
2022/03/20 07:24:29;;;;;;;29.80;16.48;;;4.10;69.40;;;;;;5064258;28;20037;-79
2022/03/20 07:29:39;;;;;;;26.90;15.77;;;4.40;69.20;;;;;;5053637;28;20175;-79
2022/03/20 07:32:06;;;;;;;32.00;17.13;;;4.60;68.70;;;;;;5060153;28;20108;-79
2022/03/20 07:34:37;;;;;;;29.45;16.95;;;4.80;68.40;;;;;;5064347;28;20093;-80
2022/03/20 07:37:04;;;;;;;32.88;17.58;;;4.90;67.30;;;;;;5062969;28;20164;-79
2022/03/20 07:39:30;;;;;;;28.58;17.70;;;4.90;67.30;;;;;;5062800;28;20528;-81
2022/03/20 07:41:57;;;;;;;27.05;16.85;;;4.90;67.40;;;;;;5062947;28;20504;-80
2022/03/20 07:44:24;;;;;;;28.95;16.45;;;5.00;67.00;;;;;;5058035;28;20033;-79
2022/03/20 07:46:52;;;;;;;26.20;15.82;;;5.10;67.10;;;;;;5061657;28;20087;-79
2022/03/20 07:49:20;;;;;;;29.45;16.50;;;5.30;67.20;;;;;;5047119;28;20101;-79
2022/03/20 07:51:46;;;;;;;25.73;15.65;;;5.50;66.20;;;;;;5055480;28;20021;-81
2022/03/20 07:54:15;;;;;;;29.17;16.20;;;5.60;65.90;;;;;;5061322;28;20368;-80
2022/03/20 07:56:41;;;;;;;25.73;15.43;;;5.80;65.50;;;;;;5061963;28;20025;-79
2022/03/20 07:59:16;;;;;;;25.75;15.88;;;6.00;65.20;;;;;;5043601;28;20108;-79
2022/03/20 08:01:42;;;;;;;26.20;16.33;;;6.20;64.20;;;;;;5056006;28;20040;-79
2022/03/20 08:04:11;;;;;;;27.63;16.75;;;6.20;63.10;;;;;;5059611;28;20052;-79
2022/03/20 08:06:37;;;;;;;28.23;16.95;;;6.20;63.10;;;;;;5061977;28;20063;-80
2022/03/20 08:09:03;;;;;;;29.48;16.92;;;6.30;63.10;;;;;;5061427;28;20110;-79
2022/03/20 08:11:30;;;;;;;28.85;17.15;;;6.40;62.80;;;;;;5060880;28;20012;-79
2022/03/20 08:13:57;;;;;;;25.15;16.20;;;6.50;62.20;;;;;;5058766;28;20079;-79
2022/03/20 08:16:25;;;;;;;23.90;15.30;;;6.60;62.10;;;;;;5061166;28;20575;-78
2022/03/20 08:18:53;;;;;;;22.48;13.85;;;6.80;62.40;;;;;;5049215;28;20048;-79
2022/03/20 08:21:18;;;;;;;26.70;16.08;;;7.00;62.50;;;;;;5045691;28;20030;-79
2022/03/20 08:23:44;;;;;;;28.63;17.30;;;7.20;60.20;;;;;;5043862;28;20029;-79
2022/03/20 08:26:11;;;;;;;27.88;17.13;;;7.30;60.30;;;;;;5063089;28;20109;-80
2022/03/20 08:28:38;;;;;;;27.08;15.27;;;7.40;59.80;;;;;;5062044;28;20025;-79
2022/03/20 08:31:06;;;;;;;25.90;15.57;;;7.60;59.90;;;;;;5047653;28;20037;-79
2022/03/20 08:33:32;;;;;;;24.48;15.82;;;8.00;59.20;;;;;;5042603;28;20025;-79
2022/03/20 08:35:59;;;;;;;23.30;14.30;;;8.30;58.40;;;;;;5052507;28;20009;-79
2022/03/20 08:38:25;;;;;;;22.02;13.90;;;8.60;57.80;;;;;;5055136;28;20042;-79
2022/03/20 08:40:51;;;;;;;24.88;15.98;;;9.00;57.30;;;;;;5046824;28;20026;-79
2022/03/20 08:43:16;;;;;;;24.27;15.50;;;9.00;56.10;;;;;;5053191;28;20393;-80
2022/03/20 08:45:44;;;;;;;21.98;14.82;;;9.10;55.90;;;;;;5053516;28;20056;-80
2022/03/20 08:48:10;;;;;;;22.05;14.35;;;9.10;56.00;;;;;;5062321;28;20032;-80
2022/03/20 08:50:37;;;;;;;20.92;13.57;;;9.30;55.90;;;;;;5060341;28;20448;-79
2022/03/20 08:53:04;;;;;;;24.30;15.52;;;9.70;55.80;;;;;;5053270;28;20033;-80
2022/03/20 08:55:33;;;;;;;25.00;15.70;;;9.80;54.40;;;;;;5058683;28;20099;-81
2022/03/20 08:57:59;;;;;;;25.05;16.15;;;9.70;54.00;;;;;;5059358;28;20032;-79
2022/03/20 09:00:26;;;;;;;22.38;14.68;;;9.80;54.20;;;;;;5061532;28;20171;-79
2022/03/20 09:02:53;;;;;;;19.70;13.38;;;10.10;54.10;;;;;;5062431;28;20021;-79
2022/03/20 09:05:20;;;;;;;22.17;14.43;;;10.50;53.50;;;;;;5062649;28;20025;-80
2022/03/20 09:07:47;;;;;;;21.58;13.13;;;10.80;52.50;;;;;;5049172;28;20076;-80
2022/03/20 09:10:15;;;;;;;22.42;13.98;;;11.00;51.80;;;;;;5061187;28;20159;-80
2022/03/20 09:12:48;;;;;;;21.42;15.05;;;11.20;50.70;;;;;;5063091;28;20051;-81
2022/03/20 09:15:16;;;;;;;22.05;14.27;;;11.00;50.00;;;;;;5050695;28;20041;-80
2022/03/20 09:20:29;;;;;;;21.88;14.52;;;11.10;50.20;;;;;;5040263;28;20438;-79
2022/03/20 09:22:55;;;;;;;19.30;13.15;;;11.10;49.80;;;;;;5047554;28;20381;-80
2022/03/20 09:25:21;;;;;;;20.55;13.55;;;11.20;49.80;;;;;;5062048;28;20021;-80
2022/03/20 09:27:51;;;;;;;19.42;13.40;;;11.50;49.60;;;;;;5057814;28;20070;-80
2022/03/20 09:30:17;;;;;;;20.90;14.73;;;11.70;48.60;;;;;;5054911;28;20029;-81
2022/03/20 09:32:44;;;;;;;19.58;13.75;;;12.00;47.60;;;;;;5040394;28;20025;-79
2022/03/20 09:35:10;;;;;;;17.52;12.50;;;12.10;47.50;;;;;;5045861;28;20028;-80
2022/03/20 09:37:35;;;;;;;18.67;12.45;;;12.60;47.20;;;;;;5058623;28;20025;-80
2022/03/20 09:40:06;;;;;;;15.10;11.52;;;13.00;46.60;;;;;;5060380;28;20021;-81
2022/03/20 09:42:34;;;;;;;17.05;11.95;;;13.50;45.90;;;;;;5059913;28;20044;-81
2022/03/20 09:45:00;;;;;;;24.58;15.68;;;13.60;44.80;;;;;;5054411;28;20029;-81
2022/03/20 09:47:26;;;;;;;22.23;13.88;;;13.50;44.00;;;;;;5043497;28;20057;-80
2022/03/20 09:49:53;;;;;;;19.23;12.57;;;13.30;44.50;;;;;;5041841;28;20037;-79
2022/03/20 09:52:19;;;;;;;19.15;14.25;;;13.00;44.80;;;;;;5041261;28;20022;-80
2022/03/20 09:54:46;;;;;;;21.00;13.80;;;13.00;44.70;;;;;;5041522;28;20033;-80
2022/03/20 09:57:12;;;;;;;20.20;13.30;;;12.90;44.20;;;;;;5036670;28;20075;-79
2022/03/20 09:59:40;;;;;;;19.30;13.50;;;12.90;44.30;;;;;;5039487;28;20029;-80
2022/03/20 10:02:08;;;;;;;16.58;12.43;;;12.90;44.90;;;;;;5058737;28;20064;-80
2022/03/20 10:04:57;;;;;;;22.15;13.85;;;13.20;44.80;;;;;;5059355;28;20029;-81
2022/03/20 10:07:25;;;;;;;18.02;12.65;;;13.30;43.20;;;;;;5045738;28;20406;-81
2022/03/20 10:10:19;;;;;;;20.58;12.95;;;13.20;43.30;;;;;;5049849;28;20374;-79
2022/03/20 10:12:59;;;;;;;18.52;13.32;;;13.20;43.30;;;;;;5054141;28;20037;-80
2022/03/20 10:15:37;;;;;;;22.90;14.05;;;13.10;43.10;;;;;;5051263;28;20539;-80
2022/03/20 10:18:07;;;;;;;18.00;12.30;;;13.00;43.10;;;;;;5037462;28;20048;-80
2022/03/20 10:20:49;;;;;;;18.20;12.30;;;13.10;43.80;;;;;;5043237;28;20048;-80
2022/03/20 10:23:36;;;;;;;17.88;11.93;;;13.30;43.30;;;;;;5057782;28;20025;-80
2022/03/20 10:26:08;;;;;;;16.30;11.40;;;13.20;43.20;;;;;;5059352;28;20051;-80
2022/03/20 10:28:46;;;;;;;16.90;11.38;;;13.60;43.80;;;;;;5047659;28;20036;-78
2022/03/20 10:31:20;;;;;;;16.23;12.07;;;14.00;43.10;;;;;;5045845;28;20414;-80
2022/03/20 10:34:03;;;;;;;15.60;11.55;;;14.50;42.60;;;;;;5037232;28;20072;-80
2022/03/20 10:36:29;;;;;;;14.45;10.63;;;15.00;41.50;;;;;;5057023;28;20055;-79
2022/03/20 10:38:55;;;;;;;14.05;10.05;;;16.50;40.30;;;;;;5061678;28;20025;-79
2022/03/20 10:41:37;;;;;;;15.13;10.30;;;18.40;38.20;;;;;;5072392;28;20032;-81
2022/03/20 10:44:13;;;;;;;14.32;11.30;;;19.20;35.70;;;;;;5047029;28;20028;-80
2022/03/20 10:46:39;;;;;;;18.85;13.55;;;18.80;34.80;;;;;;5038682;28;20022;-79
2022/03/20 10:49:07;;;;;;;16.90;11.82;;;17.50;35.10;;;;;;5054757;28;20029;-80
2022/03/20 10:51:37;;;;;;;15.35;11.60;;;16.30;37.20;;;;;;5058244;28;20025;-80
2022/03/20 10:54:10;;;;;;;15.45;11.38;;;15.70;38.40;;;;;;5064873;28;20099;-83
2022/03/20 10:56:52;;;;;;;16.98;12.55;;;15.30;39.50;;;;;;5069430;28;20028;-81
2022/03/20 10:59:17;;;;;;;14.60;10.95;;;15.30;39.20;;;;;;5061294;28;20133;-83
2022/03/20 11:01:47;;;;;;;13.88;10.75;;;15.20;39.20;;;;;;5068036;28;20033;-81
2022/03/20 11:04:14;;;;;;;15.80;11.07;;;15.10;39.20;;;;;;5052590;28;20105;-81
2022/03/20 11:06:42;;;;;;;12.55;9.88;;;15.20;39.10;;;;;;5048734;28;20045;-81
2022/03/20 11:09:08;;;;;;;14.88;11.38;;;15.50;39.00;;;;;;5066730;28;20028;-81
2022/03/20 11:11:39;;;;;;;16.00;12.75;;;15.70;38.60;;;;;;5069669;28;20089;-81
2022/03/20 11:14:05;;;;;;;16.65;11.90;;;15.50;38.40;;;;;;5058749;28;20025;-81
2022/03/20 11:16:38;;;;;;;18.70;12.57;;;15.30;38.10;;;;;;5058494;23;20064;-79
2022/03/20 11:19:08;;;;;;;14.98;11.30;;;15.20;38.10;;;;;;5040226;28;20049;-80
2022/03/20 11:21:37;;;;;;;16.67;12.55;;;15.10;38.90;;;;;;5047634;28;20128;-80
2022/03/20 11:24:03;;;;;;;19.25;13.48;;;15.20;38.60;;;;;;5048718;28;20021;-80
2022/03/20 11:26:31;;;;;;;17.13;13.02;;;15.10;38.60;;;;;;5039801;28;20021;-80
2022/03/20 11:29:03;;;;;;;18.67;12.75;;;14.90;39.00;;;;;;5039576;28;20029;-80
2022/03/20 11:31:36;;;;;;;14.52;12.05;;;14.90;39.30;;;;;;5038720;28;20093;-80
2022/03/20 11:34:05;;;;;;;17.30;12.00;;;15.10;39.30;;;;;;5038651;28;20089;-79
2022/03/20 11:36:52;;;;;;;15.88;12.05;;;15.60;39.10;;;;;;5038223;28;20029;-80
2022/03/20 11:39:18;;;;;;;14.98;11.02;;;16.30;37.20;;;;;;5029290;28;20041;-80
2022/03/20 11:41:43;;;;;;;16.45;12.02;;;16.80;37.60;;;;;;5038368;28;20032;-81
2022/03/20 11:44:20;;;;;;;16.02;12.25;;;17.20;36.50;;;;;;5037395;28;20041;-80
2022/03/20 11:47:04;;;;;;;16.75;13.10;;;17.30;34.80;;;;;;5037191;28;20057;-80
2022/03/20 11:49:30;;;;;;;14.80;11.40;;;17.00;35.40;;;;;;5050778;28;20026;-80
2022/03/20 11:52:05;;;;;;;13.93;11.18;;;16.40;36.80;;;;;;5037320;28;20097;-80
2022/03/20 11:54:40;;;;;;;15.85;11.45;;;16.40;38.10;;;;;;5016882;28;20030;-80
2022/03/20 11:57:28;;;;;;;15.20;12.32;;;16.60;37.70;;;;;;5031644;28;20109;-80
2022/03/20 11:59:55;;;;;;;18.00;12.52;;;16.60;37.60;;;;;;5036935;28;20022;-81
2022/03/20 12:02:46;;;;;;;19.30;12.57;;;16.40;38.00;;;;;;5038260;28;20161;-81
2022/03/20 12:05:20;;;;;;;15.85;12.15;;;16.10;38.10;;;;;;5020183;28;20033;-81
2022/03/20 12:08:01;;;;;;;19.70;12.52;;;15.90;38.60;;;;;;5045233;28;20513;-80
2022/03/20 12:10:49;;;;;;;14.77;11.93;;;16.10;38.20;;;;;;5039517;28;20097;-80
2022/03/20 12:13:46;;;;;;;18.10;12.02;;;16.00;37.50;;;;;;5041124;28;20033;-81
2022/03/20 12:16:11;;;;;;;15.88;12.02;;;15.80;37.70;;;;;;5039326;28;20041;-79
2022/03/20 12:19:06;;;;;;;13.60;10.70;;;15.60;39.20;;;;;;5040529;28;20025;-80
2022/03/20 12:21:56;;;;;;;13.25;10.13;;;15.60;38.60;;;;;;5041259;28;20022;-80
2022/03/20 12:24:34;;;;;;;13.80;10.38;;;15.80;38.30;;;;;;5018217;28;20068;-80
2022/03/20 12:27:29;;;;;;;15.85;11.05;;;16.20;38.00;;;;;;5022612;28;20036;-79
2022/03/20 12:30:05;;;;;;;13.38;10.32;;;16.50;37.50;;;;;;5031795;28;20500;-80
2022/03/20 12:32:52;;;;;;;14.50;10.73;;;16.50;36.90;;;;;;5039589;28;20025;-81
2022/03/20 12:35:19;;;;;;;14.10;11.63;;;16.30;37.20;;;;;;5041296;28;20100;-80
2022/03/20 12:37:45;;;;;;;17.02;10.68;;;16.10;36.90;;;;;;5039105;28;20030;-80
2022/03/20 12:40:21;;;;;;;16.42;11.60;;;16.00;37.10;;;;;;5049567;28;20022;-79
2022/03/20 12:43:03;;;;;;;12.40;10.57;;;15.80;37.50;;;;;;5056752;28;20032;-79
2022/03/20 12:45:32;;;;;;;14.40;11.52;;;15.80;37.20;;;;;;5056657;28;20014;-79
2022/03/20 12:48:04;;;;;;;15.65;10.70;;;15.70;36.90;;;;;;5055142;28;20025;-80
2022/03/20 12:50:36;;;;;;;14.05;10.25;;;15.70;37.20;;;;;;5049395;28;20037;-79
2022/03/20 12:53:09;;;;;;;15.95;11.75;;;15.90;37.50;;;;;;5046040;28;20029;-79
2022/03/20 12:55:39;;;;;;;15.60;11.48;;;16.30;37.00;;;;;;5049348;28;20053;-78
2022/03/20 12:58:07;;;;;;;15.43;11.18;;;16.30;36.70;;;;;;5047293;28;20048;-79
2022/03/20 13:00:36;;;;;;;16.40;11.80;;;16.20;36.80;;;;;;5041046;28;20102;-80
2022/03/20 13:03:14;;;;;;;14.77;10.60;;;15.90;37.00;;;;;;5041149;28;20378;-79
2022/03/20 13:05:59;;;;;;;15.43;10.85;;;15.90;37.60;;;;;;5021975;28;20364;-81
2022/03/20 13:08:31;;;;;;;16.08;11.45;;;15.80;38.00;;;;;;5026062;28;20018;-81